Latest Weather Observations for Kununurra Airport

IDW60801

Issued at 9:03 am WST Sunday 19 April 2015 (issued every 30 minutes, with the page automatically refreshed every 10 minutes)

About weather observations | Map of weather stations | Latest weather observations for WA | Other Formats
Station Details ID: 002056 Name: KUNUNURRA AERO Lat: -15.78 Lon: 128.71 Height: 44.0 m
Data from the previous 72 hours. | See also: Recent months at Kununurra Airport
Date/Time
WST
Temp
°C
App
Temp
°C
Dew
Point
Rel
Hum
%
Delta-T
°C
Wind Press
QNH
hPa
Press
MSL
hPa
Rain
since 9 am
mm
Dir
 
Spd
km/h
Gust
km/h
Spd
kts
Gust
kts
19/09:00am 30.4 28.4 17.3 45 8.3 SE 24 37 13 20 1014.8 1014.6 0.0
19/08:30am 29.7 28.5 17.6 48 7.7 SE 20 30 11 16 1014.7 1014.5 0.0
19/08:00am 29.0 28.1 17.7 50 7.2 SE 19 26 10 14 1014.7 1014.5 0.0
19/07:30am 27.6 26.7 18.2 56 6.0 SE 20 28 11 15 1014.9 1014.7 0.0
19/07:00am 26.8 25.9 18.3 59 5.4 SSE 20 26 11 14 1014.9 1014.7 0.0
19/06:30am 26.4 26.2 18.4 61 5.1 SSE 17 24 9 13 1014.6 1014.3 0.0
19/06:00am 26.3 26.3 19.0 64 4.7 SSE 17 20 9 11 1014.5 1014.2 0.0
19/05:30am 26.3 26.4 19.1 64 4.6 SSE 17 24 9 13 1014.4 1014.1 0.0
19/05:00am 26.4 25.8 18.9 63 4.8 SSE 20 28 11 15 1013.9 1013.6 0.0
19/04:30am 26.5 26.0 19.2 64 4.7 SSE 20 30 11 16 1013.5 1013.2 0.0
19/04:00am 26.6 26.0 19.8 66 4.4 SSE 22 30 12 16 1013.2 1012.9 0.0
19/03:30am 26.8 27.6 20.7 69 4.0 SSE 17 26 9 14 1013.1 1012.8 0.0
19/03:00am 26.7 27.5 21.4 72 3.5 SSE 19 26 10 14 1013.0 1012.7 0.0
19/02:30am 25.2 28.5 22.5 85 1.8 S 9 11 5 6 1013.0 1012.7 0.0
19/02:00am 25.3 28.0 22.2 83 2.1 SW 11 17 6 9 1013.0 1012.7 0.0
19/01:30am 25.2 27.9 22.1 83 2.1 SW 11 15 6 8 1012.7 1012.4 0.0
19/01:00am 25.1 26.9 21.8 82 2.2 SW 15 17 8 9 1012.9 1012.6 0.0
19/12:30am 25.4 27.6 21.8 80 2.4 SW 13 17 7 9 1013.0 1012.7 0.0
19/12:00am 25.2 26.6 21.9 82 2.2 SW 17 20 9 11 1013.0 1012.7 0.0
 
Date/Time
WST
Temp
°C
App
Temp
°C
Dew
Point
Rel
Hum
%
Delta-T
°C
Wind Press
QNH
hPa
Press
MSL
hPa
Rain
since 9 am
mm
Dir
 
Spd
km/h
Gust
km/h
Spd
kts
Gust
kts
18/11:30pm 25.8 26.8 21.8 78 2.7 SW 19 24 10 13 1013.2 1012.9 0.0
18/11:00pm 26.8 28.4 21.4 72 3.6 WSW 15 24 8 13 1013.2 1012.9 0.0
18/10:30pm 26.3 27.7 21.8 76 3.0 WSW 17 24 9 13 1012.9 1012.6 0.0
18/10:00pm 27.6 28.6 21.0 67 4.4 WSW 17 20 9 11 1012.6 1012.3 0.0
18/09:30pm 28.2 30.5 22.0 69 4.2 SW 13 19 7 10 1012.3 1012.0 0.0
18/09:00pm 29.9 33.7 22.7 65 4.9 E 7 7 4 4 1012.3 1012.0 0.0
18/08:30pm 29.7 33.4 22.5 65 4.9 SE 7 13 4 7 1011.9 1011.6 0.0
18/08:00pm 29.3 31.9 21.9 64 5.0 N 11 13 6 7 1011.2 1010.9 0.0
18/07:30pm 29.8 31.4 21.5 61 5.6 N 15 15 8 8 1011.2 1010.9 0.0
18/07:00pm 30.0 31.7 21.0 58 6.0 N 13 15 7 8 1010.9 1010.6 0.0
18/06:30pm 30.5 32.3 21.1 57 6.3 N 13 17 7 9 1010.1 1009.8 0.0
18/06:00pm 30.8 34.1 22.5 61 5.7 NNE 9 9 5 5 1009.5 1009.2 0.0
18/05:30pm 31.7 34.9 21.7 55 6.8 N 7 9 4 5 1009.1 1008.8 0.0
18/05:00pm 32.8 36.0 21.6 51 7.6 SW 7 9 4 5 1008.7 1008.4 0.0
18/04:30pm 34.6 38.2 20.5 43 9.5 N 2 6 1 3 1008.6 1008.3 0.0
18/04:00pm 35.0 36.4 17.9 36 11.1 ENE 7 9 4 5 1008.5 1008.2 0.0
18/03:30pm 35.2 38.2 19.2 39 10.6 WNW 2 6 1 3 1008.4 1008.1 0.0
18/03:00pm 35.0 37.0 18.7 38 10.7 S 6 7 3 4 1008.2 1007.9 0.0
18/02:30pm 35.5 36.8 17.6 34 11.6 ESE 7 13 4 7 1008.4 1008.1 0.0
18/02:00pm 35.2 37.1 19.0 38 10.7 SSE 7 13 4 7 1008.7 1008.4 0.0
18/01:30pm 34.7 35.9 19.9 42 9.9 SSE 13 17 7 9 1008.9 1008.6 0.0
18/01:00pm 36.9 36.4 17.7 32 12.5 NE 17 30 9 16 1009.1 1008.8 0.0
18/12:30pm 35.5 36.8 18.4 36 11.2 SE 9 19 5 10 1009.7 1009.4 0.0
18/12:00pm 35.0 36.1 18.9 38 10.6 NNW 11 13 6 7 1010.2 1009.9 0.0
18/11:30am 34.5 36.3 19.6 41 9.9 SSW 9 13 5 7 1010.7 1010.4 0.0
18/11:06am 35.3 37.9 20.1 41 10.2 SSW 6 13 3 7 1011.1 1010.8 0.0
18/11:00am 34.6 37.0 20.1 42 9.7 SW 7 13 4 7 1011.3 1011.0 0.0
18/10:49am 33.9 36.1 19.7 43 9.4 NW 7 13 4 7 1011.5 1011.2 0.0
18/10:30am 34.5 36.8 19.9 42 9.7 SE 7 15 4 8 1011.8 1011.5 0.0
18/10:00am 33.4 36.1 21.3 49 8.2 ESE 9 13 5 7 1012.3 1012.0 0.0
18/09:30am 32.7 35.9 21.3 51 7.7 SE 6 11 3 6 1012.7 1012.4 0.0
18/09:00am 31.7 34.7 21.3 54 7.0 WSW 7 11 4 6 1013.0 1012.7 0.0
18/08:30am 31.1 34.6 21.8 57 6.3 S 6 7 3 4 1013.1 1012.8 0.0
18/08:00am 30.4 34.0 22.0 60 5.7 ENE 6 9 3 5 1013.1 1012.8 0.0
18/07:30am 29.5 33.5 22.8 67 4.6 ENE 6 9 3 5 1012.8 1012.5 0.0
18/07:00am 27.4 31.8 23.5 79 2.7 NNE 6 7 3 4 1012.8 1012.5 0.0
18/06:30am 26.1 31.5 23.2 84 2.0 CALM 0 0 0 0 1012.6 1012.3 0.0
18/06:29am 26.0 31.3 23.1 84 2.0 CALM 0 0 0 0 1012.6 1012.3 0.0
18/06:17am 25.5 30.8 23.1 86 1.6 CALM 0 0 0 0 1012.6 1012.3 0.0
18/06:00am 24.7 30.0 23.1 91 1.1 CALM 0 0 0 0 1012.5 1012.2 0.0
18/05:30am 23.8 29.2 23.2 96 0.4 CALM 0 0 0 0 1012.2 1011.9 0.0
18/05:00am 24.2 29.6 23.2 94 0.7 CALM 0 0 0 0 1011.8 1011.5 0.0
18/04:46am 24.1 29.6 23.4 96 0.5 CALM 0 0 0 0 1011.7 1011.4 0.0
18/04:34am 24.1 29.6 23.4 96 0.5 CALM 0 0 0 0 1011.5 1011.2 0.0
18/04:30am 24.0 29.5 23.4 96 0.4 CALM 0 0 0 0 1011.5 1011.2 0.0
18/04:00am 24.4 30.1 23.8 96 0.4 CALM 0 0 0 0 1010.9 1010.6 0.0
18/03:30am 25.1 30.7 23.5 91 1.1 CALM 0 0 0 0 1010.7 1010.4 0.0
18/03:00am 24.9 30.2 23.1 90 1.2 CALM 0 0 0 0 1010.7 1010.4 0.0
18/02:30am 24.4 29.1 22.6 90 1.2 NNE 2 9 1 5 1010.5 1010.2 0.0
18/02:00am 24.8 29.9 22.6 87 1.5 CALM 0 0 0 0 1010.6 1010.3 0.0
18/01:30am 25.6 30.0 22.8 84 1.9 NNE 4 9 2 5 1010.7 1010.4 0.0
18/01:00am 25.6 28.7 22.8 84 1.9 N 11 11 6 6 1011.0 1010.7 0.0
18/12:30am 26.0 29.1 22.8 82 2.2 N 11 13 6 7 1011.1 1010.8 0.0
18/12:00am 26.4 29.0 22.6 79 2.6 NNE 13 15 7 8 1011.3 1011.0 0.0
 
Date/Time
WST
Temp
°C
App
Temp
°C
Dew
Point
Rel
Hum
%
Delta-T
°C
Wind Press
QNH
hPa
Press
MSL
hPa
Rain
since 9 am
mm
Dir
 
Spd
km/h
Gust
km/h
Spd
kts
Gust
kts
17/11:30pm 26.3 30.1 22.8 81 2.4 NNE 7 11 4 6 1011.3 1011.0 0.0
17/11:00pm 26.6 30.1 22.8 79 2.6 NNE 9 13 5 7 1011.3 1011.0 0.0
17/10:30pm 26.8 30.3 22.8 79 2.7 N 9 11 5 6 1011.5 1011.2 0.0
17/10:00pm 27.4 31.2 22.8 76 3.1 N 7 9 4 5 1011.6 1011.3 0.0
17/09:30pm 27.5 31.4 23.0 76 3.1 N 7 7 4 4 1011.8 1011.5 0.0
17/09:00pm 27.6 31.2 23.1 76 3.1 N 9 9 5 5 1011.9 1011.6 0.0
17/08:30pm 27.8 31.4 23.1 75 3.2 N 9 11 5 6 1011.8 1011.5 0.0
17/08:00pm 28.4 31.9 22.8 71 3.8 N 9 11 5 6 1011.5 1011.2 0.0
17/07:30pm 28.8 31.8 22.6 69 4.2 N 11 13 6 7 1011.3 1011.0 0.0
17/07:00pm 29.0 31.3 22.0 66 4.7 N 13 15 7 8 1010.7 1010.4 0.0
17/06:30pm 29.4 31.0 20.8 60 5.7 N 13 13 7 7 1010.2 1009.9 0.0
17/06:00pm 30.5 31.1 19.5 51 7.2 N 15 22 8 12 1009.7 1009.4 0.0
17/05:30pm 31.3 32.8 19.8 50 7.6 N 11 11 6 6 1009.2 1008.9 0.0
17/05:00pm 33.3 34.5 19.0 42 9.4 NNE 11 13 6 7 1008.9 1008.6 0.0
17/04:30pm 35.1 36.2 17.9 36 11.2 NE 9 13 5 7 1008.8 1008.5 0.0
17/04:00pm 35.4 36.3 17.5 34 11.6 ENE 9 15 5 8 1008.6 1008.3 0.0
17/03:30pm 36.6 38.9 17.7 32 12.3 NNW 2 7 1 4 1008.6 1008.3 0.0
17/03:00pm 35.7 36.8 17.9 35 11.6 SE 9 20 5 11 1008.6 1008.3 0.0
17/02:30pm 35.8 36.2 17.2 33 12.0 ESE 11 20 6 11 1008.7 1008.4 0.0
17/02:00pm 35.8 36.3 17.4 33 11.9 NE 11 20 6 11 1008.8 1008.5 0.0
17/01:30pm 36.4 38.3 17.6 33 12.2 NNW 4 9 2 5 1009.0 1008.7 0.0
17/01:00pm 35.5 37.0 18.0 35 11.4 NNE 7 9 4 5 1009.6 1009.3 0.0
17/12:30pm 35.1 36.5 17.7 35 11.3 SE 7 13 4 7 1010.1 1009.8 0.0
17/12:00pm 35.8 36.6 18.2 35 11.5 NNE 11 20 6 11 1010.5 1010.2 0.0
17/11:30am 34.1 34.1 18.9 40 10.0 N 17 28 9 15 1011.0 1010.7 0.0
17/11:00am 34.3 35.6 19.3 41 9.9 N 11 22 6 12 1011.6 1011.3 0.0
17/10:30am 34.2 36.1 19.7 42 9.6 E 9 24 5 13 1012.2 1011.9 0.0
17/10:00am 33.6 35.3 19.3 43 9.4 N 9 15 5 8 1012.7 1012.4 0.0
17/09:30am 33.4 35.6 19.5 44 9.2 NE 7 13 4 7 1013.2 1012.9 0.0
17/09:00am 33.1 35.8 20.2 46 8.6 E 6 9 3 5 1013.5 1013.2 0.0
17/08:30am 31.7 35.2 21.8 55 6.7 SE 6 9 3 5 1013.8 1013.5 0.0
17/08:00am 30.4 34.6 23.1 65 5.0 SSE 6 7 3 4 1014.0 1013.7 0.0
17/07:30am 29.2 34.3 24.0 73 3.6 SE 4 7 2 4 1014.0 1013.7 0.0
17/07:00am 27.2 33.2 24.2 84 2.1 CALM 0 6 0 3 1014.0 1013.7 0.0
17/06:30am 25.6 30.6 23.9 90 1.2 WSW 4 6 2 3 1014.0 1013.7 0.0
17/06:00am 24.2 29.2 23.2 94 0.7 NW 2 6 1 3 1013.7 1013.4 0.0
17/05:30am 23.7 29.0 23.0 96 0.5 CALM 0 0 0 0 1013.4 1013.1 0.0
17/05:00am 24.2 28.3 23.2 94 0.7 NE 7 9 4 5 1012.9 1012.6 0.0
17/04:30am 24.0 28.9 23.1 95 0.6 N 2 9 1 5 1012.6 1012.3 0.0
17/04:00am 24.1 28.1 22.8 92 0.9 SE 6 11 3 6 1012.2 1011.9 0.0
17/03:30am 24.9 29.4 23.6 92 0.9 SSW 6 9 3 5 1011.8 1011.5 0.0
17/03:00am 24.7 29.5 22.8 89 1.3 SE 2 6 1 3 1011.7 1011.4 0.0
17/02:30am 25.3 29.8 22.9 86 1.6 ENE 4 6 2 3 1011.7 1011.4 0.0
17/02:00am 25.5 30.9 23.3 88 1.5 CALM 0 0 0 0 1011.9 1011.6 0.0
17/01:30am 25.7 31.2 23.4 87 1.6 CALM 0 0 0 0 1012.1 1011.8 0.0
17/01:00am 25.4 30.8 23.3 88 1.4 CALM 0 0 0 0 1012.4 1012.1 0.0
17/12:30am 26.0 30.3 23.7 87 1.6 NNE 7 9 4 5 1012.6 1012.3 0.0
17/12:00am 26.1 30.3 23.5 85 1.8 NNE 7 9 4 5 1012.9 1012.6 0.0
 
Date/Time
WST
Temp
°C
App
Temp
°C
Dew
Point
Rel
Hum
%
Delta-T
°C
Wind Press
QNH
hPa
Press
MSL
hPa
Rain
since 9 am
mm
Dir
 
Spd
km/h
Gust
km/h
Spd
kts
Gust
kts
16/11:30pm 26.4 30.5 23.3 83 2.1 N 7 11 4 6 1013.3 1013.0 0.0
16/11:00pm 26.7 29.8 23.6 83 2.1 N 13 15 7 8 1013.5 1013.2 0.0
16/10:30pm 27.1 30.5 23.4 80 2.5 NNE 11 13 6 7 1013.7 1013.4 0.0
16/10:00pm 27.5 30.9 23.3 78 2.9 N 11 13 6 7 1013.7 1013.4 0.0
16/09:30pm 27.5 31.0 22.9 76 3.1 N 9 13 5 7 1013.6 1013.3 0.0
16/09:00pm 27.8 32.7 22.3 72 3.7 CALM 0 4 0 2 1013.8 1013.5 0.0
16/08:30pm 28.0 30.9 21.7 68 4.2 N 9 11 5 6 1013.7 1013.4 0.0
16/08:00pm 28.5 30.3 21.1 64 4.9 NNE 13 17 7 9 1013.5 1013.2 0.0
16/07:30pm 29.1 29.8 19.6 56 6.2 N 15 17 8 9 1013.3 1013.0 0.0
16/07:00pm 30.5 31.9 18.6 49 7.7 NNE 9 11 5 6 1012.6 1012.3 0.0
16/06:30pm 31.2 32.5 18.4 46 8.3 NNE 9 11 5 6 1012.0 1011.7 0.0
16/06:00pm 32.0 33.1 18.0 43 9.0 NE 9 11 5 6 1011.5 1011.2 0.0
16/05:30pm 32.9 33.5 17.7 40 9.8 NE 11 11 6 6 1011.2 1010.9 0.0
16/05:00pm 34.7 34.2 16.9 34 11.4 NE 15 19 8 10 1010.9 1010.6 0.0
16/04:30pm 36.0 35.2 16.2 31 12.6 NE 15 19 8 10 1010.6 1010.3 0.0
16/04:00pm 36.4 36.1 16.4 30 12.8 NE 13 15 7 8 1010.4 1010.1 0.0
16/03:30pm 36.6 36.0 16.7 30 12.8 ENE 15 20 8 11 1010.4 1010.1 0.0
16/03:00pm 36.8 36.4 16.3 29 13.1 ENE 13 19 7 10 1010.4 1010.1 0.0
16/02:30pm 37.1 37.4 17.0 30 13.0 ENE 11 19 6 10 1010.6 1010.3 0.0
16/02:00pm 36.5 36.0 16.9 31 12.6 ENE 15 24 8 13 1010.8 1010.5 0.0
16/01:30pm 37.0 36.2 17.0 30 12.9 ESE 17 28 9 15 1011.1 1010.8 0.0
16/01:00pm 36.9 36.2 17.3 31 12.7 E 17 28 9 15 1011.6 1011.3 0.0
16/12:30pm 37.0 36.5 17.9 32 12.5 NE 17 24 9 13 1012.1 1011.8 0.0
16/12:00pm 36.4 36.6 18.6 35 11.7 ENE 15 28 8 15 1012.6 1012.3 0.0
16/11:30am 36.4 37.2 19.0 36 11.5 ENE 13 19 7 10 1013.2 1012.9 0.0
16/11:00am 35.5 36.4 19.2 38 10.8 ENE 13 20 7 11 1013.9 1013.6 0.0
16/10:30am 35.5 37.2 19.4 38 10.7 ENE 9 15 5 8 1014.4 1014.1 0.0
16/10:00am 34.8 36.5 20.1 42 9.8 NE 11 17 6 9 1015.2 1015.0 0.0
16/09:30am 34.7 35.9 20.6 43 9.5 NE 15 24 8 13 1015.7 1015.5 0.0

Other Formats:

Comma delimited format used in spreadsheet applications
http://www.bom.gov.au/fwo/IDW60801/IDW60801.94216.axf

JavaScript Object Notation format (JSON) in row-major order
http://www.bom.gov.au/fwo/IDW60801/IDW60801.94216.json